Time;durP1;ratioP1;P1;durP2;ratioP2;P2;SDS_P1;SDS_P2;PMS_P1;PMS_P2;Temp;Humidity;BMP_temperature;BMP_pressure;BME280_temperature;BME280_humidity;BME280_pressure;Samples;Min_cycle;Max_cycle;Signal;HPM_P1;HPM_P2
2022/12/25 00:00:35;;;;;;;37.85;32.00;;;25.90;99.90;;;;;;5076054;28;20017;-67
2022/12/25 00:03:02;;;;;;;46.38;32.20;;;25.90;99.90;;;;;;5075925;28;20024;-67
2022/12/25 00:05:28;;;;;;;48.15;34.22;;;26.00;99.90;;;;;;5076015;28;20024;-67
2022/12/25 00:07:55;;;;;;;48.20;33.38;;;26.00;99.90;;;;;;5076271;28;20028;-65
2022/12/25 00:10:22;;;;;;;46.70;31.58;;;26.00;99.90;;;;;;5075827;28;20028;-66
2022/12/25 00:12:49;;;;;;;43.63;31.50;;;26.00;99.90;;;;;;5075757;28;20123;-67
2022/12/25 00:15:15;;;;;;;51.28;36.28;;;26.00;99.90;;;;;;5078151;28;20374;-67
2022/12/25 00:17:41;;;;;;;51.50;36.95;;;26.00;99.90;;;;;;5084687;28;20024;-67
2022/12/25 00:20:09;;;;;;;55.97;38.70;;;25.90;99.90;;;;;;5075750;28;20443;-67
2022/12/25 00:22:35;;;;;;;55.72;34.05;;;25.90;99.90;;;;;;5075893;28;20074;-67
2022/12/25 00:25:02;;;;;;;50.03;35.03;;;25.80;99.90;;;;;;5075610;28;20500;-67
2022/12/25 00:27:32;;;;;;;52.42;32.75;;;25.80;99.90;;;;;;5075780;28;20677;-67
2022/12/25 00:30:00;;;;;;;46.58;28.70;;;25.80;99.90;;;;;;5075495;28;20078;-67
2022/12/25 00:32:27;;;;;;;56.90;34.15;;;25.70;99.90;;;;;;5074264;28;20060;-70
2022/12/25 00:34:53;;;;;;;72.05;48.35;;;25.80;99.90;;;;;;5075464;28;20469;-67
2022/12/25 00:37:20;;;;;;;58.47;36.58;;;25.80;99.90;;;;;;5075523;28;20389;-67
2022/12/25 00:39:48;;;;;;;81.10;51.92;;;25.80;99.90;;;;;;5075415;28;20044;-67
2022/12/25 00:42:17;;;;;;;49.65;31.25;;;25.80;99.90;;;;;;5075338;28;20036;-67
2022/12/25 00:44:47;;;;;;;45.08;30.95;;;25.80;99.90;;;;;;5074229;28;20100;-66
2022/12/25 00:47:15;;;;;;;50.30;31.80;;;25.80;99.90;;;;;;5075145;28;20021;-67
2022/12/25 00:49:42;;;;;;;51.10;34.63;;;25.80;99.90;;;;;;5075237;28;20028;-67
2022/12/25 00:52:09;;;;;;;50.55;33.53;;;25.80;99.90;;;;;;5075293;28;20154;-67
2022/12/25 00:54:36;;;;;;;47.97;31.58;;;25.90;99.90;;;;;;5074982;28;20016;-66
2022/12/25 00:57:03;;;;;;;42.08;29.05;;;26.00;99.90;;;;;;5074952;28;20028;-66
2022/12/25 00:59:34;;;;;;;40.92;26.80;;;26.00;99.90;;;;;;5075094;28;20544;-65
2022/12/25 01:02:22;;;;;;;42.50;24.90;;;26.10;99.90;;;;;;5074949;28;20027;-65
2022/12/25 01:04:47;;;;;;;36.15;22.40;;;26.10;99.90;;;;;;5074904;28;20024;-70
2022/12/25 01:07:15;;;;;;;36.78;21.27;;;26.10;99.90;;;;;;5077457;28;20020;-66
2022/12/25 01:12:29;;;;;;;59.88;38.03;;;26.10;99.90;;;;;;5095451;28;20112;-64
2022/12/25 01:14:55;;;;;;;68.57;41.03;;;26.10;99.90;;;;;;5095114;28;20519;-65
2022/12/25 01:17:22;;;;;;;67.47;36.53;;;26.20;99.90;;;;;;5094914;28;20028;-66
2022/12/25 01:19:49;;;;;;;75.10;35.85;;;26.20;99.90;;;;;;5094967;28;20032;-64
2022/12/25 01:22:15;;;;;;;34.88;21.00;;;26.20;99.90;;;;;;5094835;28;20361;-66
2022/12/25 01:24:43;;;;;;;62.20;36.13;;;26.30;99.90;;;;;;5095016;28;20078;-65
2022/12/25 01:27:10;;;;;;;47.58;26.20;;;26.30;99.90;;;;;;5094714;28;20020;-66
2022/12/25 01:29:37;;;;;;;42.42;25.60;;;26.30;99.90;;;;;;5094774;28;20032;-66
2022/12/25 01:32:05;;;;;;;31.60;20.55;;;26.40;99.90;;;;;;5094704;28;20414;-66
2022/12/25 01:34:31;;;;;;;36.35;21.40;;;26.50;99.90;;;;;;5094616;28;20020;-64
2022/12/25 01:36:58;;;;;;;42.88;25.17;;;26.40;99.90;;;;;;5094656;28;20020;-67
2022/12/25 01:39:24;;;;;;;37.40;22.90;;;26.40;99.90;;;;;;5094805;28;20021;-66
2022/12/25 01:41:51;;;;;;;39.40;22.40;;;26.40;99.90;;;;;;5094657;28;20020;-66
2022/12/25 01:44:35;;;;;;;41.30;24.30;;;26.50;99.90;;;;;;5094706;28;20023;-66
2022/12/25 01:47:06;;;;;;;44.08;23.33;;;26.50;99.90;;;;;;5094755;28;20028;-69
2022/12/25 01:49:39;;;;;;;43.17;21.60;;;26.50;99.90;;;;;;5094440;28;20487;-68
2022/12/25 01:52:13;;;;;;;40.88;19.73;;;26.60;99.90;;;;;;5094467;28;20499;-67
2022/12/25 01:54:52;;;;;;;31.92;19.92;;;26.60;99.90;;;;;;5081317;28;20397;-68
2022/12/25 01:57:24;;;;;;;49.38;26.13;;;26.60;99.90;;;;;;5073777;28;20389;-69
2022/12/25 01:59:51;;;;;;;37.50;20.58;;;26.70;99.90;;;;;;5073643;28;20150;-69
2022/12/25 02:02:18;;;;;;;31.05;18.55;;;26.70;99.90;;;;;;5073982;28;20052;-69
2022/12/25 02:04:56;;;;;;;29.80;16.25;;;26.70;99.90;;;;;;5073907;28;20028;-70
2022/12/25 02:07:25;;;;;;;39.28;19.42;;;26.80;99.90;;;;;;5073662;28;20492;-69
2022/12/25 02:09:53;;;;;;;37.90;20.52;;;26.80;99.90;;;;;;5073823;28;20485;-70
2022/12/25 02:12:29;;;;;;;36.22;19.13;;;26.90;99.90;;;;;;5073721;28;20134;-69
2022/12/25 02:15:02;;;;;;;28.30;17.40;;;26.90;99.90;;;;;;5073672;28;20028;-69
2022/12/25 02:17:35;;;;;;;31.10;18.67;;;27.00;99.90;;;;;;5084118;28;20020;-69
2022/12/25 02:20:20;;;;;;;37.92;18.42;;;27.00;99.90;;;;;;5073879;28;20377;-66
2022/12/25 02:23:04;;;;;;;32.60;20.77;;;27.00;99.90;;;;;;5073506;28;20095;-68
2022/12/25 02:25:42;;;;;;;31.48;19.88;;;27.00;99.90;;;;;;5073599;28;20052;-68
2022/12/25 02:28:25;;;;;;;39.28;18.85;;;27.00;99.90;;;;;;5073674;28;20501;-68
2022/12/25 02:31:16;;;;;;;35.58;17.77;;;27.00;99.90;;;;;;5073393;28;20032;-69
2022/12/25 02:34:03;;;;;;;28.08;16.33;;;27.00;99.90;;;;;;5072657;28;20032;-69
2022/12/25 02:36:36;;;;;;;36.85;19.55;;;27.00;99.90;;;;;;5059161;28;20037;-67
2022/12/25 02:41:59;;;;;;;32.90;17.70;;;27.10;99.90;;;;;;5032077;28;20040;-67
2022/12/25 03:07:08;;;;;;;37.28;19.50;;;27.40;99.90;;;;;;5073723;28;20052;-67
2022/12/25 03:12:45;;;;;;;36.22;16.05;;;27.50;99.90;;;;;;5077027;28;20039;-67
2022/12/25 03:18:01;;;;;;;56.20;30.40;;;27.60;99.90;;;;;;5076841;28;20040;-68
2022/12/25 03:28:46;;;;;;;39.55;20.38;;;27.80;99.90;;;;;;5083724;28;20039;-68
2022/12/25 03:31:40;;;;;;;30.13;13.18;;;27.90;99.90;;;;;;5084822;28;20031;-66
2022/12/25 03:44:20;;;;;;;29.13;14.50;;;28.00;99.90;;;;;;5076465;28;19911;-67
2022/12/25 04:36:46;;;;;;;34.33;15.18;;;28.80;99.90;;;;;;5088263;28;20044;-68
2022/12/25 04:39:12;;;;;;;36.58;17.25;;;28.80;99.90;;;;;;5089446;28;20012;-68
2022/12/25 04:41:39;;;;;;;24.60;11.25;;;28.80;99.90;;;;;;5089563;28;20061;-67
2022/12/25 04:44:05;;;;;;;29.98;14.95;;;28.90;99.90;;;;;;5085264;28;20044;-64
2022/12/25 04:46:32;;;;;;;30.90;16.80;;;28.80;99.90;;;;;;5083459;28;20105;-65
2022/12/25 04:48:58;;;;;;;26.92;14.05;;;28.90;99.90;;;;;;5085104;28;20383;-68
2022/12/25 04:51:25;;;;;;;26.20;17.30;;;28.90;99.90;;;;;;5085078;28;20086;-69
2022/12/25 04:53:53;;;;;;;25.10;12.50;;;29.00;99.90;;;;;;5080305;28;20048;-65
2022/12/25 04:56:20;;;;;;;21.33;10.10;;;29.00;99.90;;;;;;5077795;28;20039;-66
2022/12/25 04:58:47;;;;;;;29.17;9.68;;;28.90;99.90;;;;;;5080470;28;20499;-67
2022/12/25 05:01:14;;;;;;;23.55;9.35;;;29.00;99.90;;;;;;5091597;28;20046;-66
2022/12/25 05:03:41;;;;;;;18.27;8.98;;;29.00;99.90;;;;;;5087370;28;20016;-67
2022/12/25 05:06:08;;;;;;;26.13;10.27;;;29.00;99.90;;;;;;5084978;28;20423;-66
2022/12/25 05:08:35;;;;;;;32.08;14.55;;;29.00;99.90;;;;;;5086055;28;20273;-67
2022/12/25 05:11:09;;;;;;;24.05;10.23;;;29.10;99.90;;;;;;5084180;28;20496;-67
2022/12/25 05:13:36;;;;;;;15.40;8.73;;;29.10;99.90;;;;;;5083280;28;20036;-66
2022/12/25 05:16:15;;;;;;;21.75;9.65;;;29.10;99.90;;;;;;5084763;28;20021;-68
2022/12/25 05:18:42;;;;;;;26.95;10.90;;;29.20;99.90;;;;;;5084154;28;20048;-67
2022/12/25 05:21:11;;;;;;;32.38;16.55;;;29.20;99.90;;;;;;5087052;28;20039;-70
2022/12/25 05:23:37;;;;;;;27.77;11.50;;;29.30;99.90;;;;;;5077497;28;20021;-70
2022/12/25 05:26:07;;;;;;;19.67;9.73;;;29.30;99.90;;;;;;5077150;28;20024;-72
2022/12/25 05:28:34;;;;;;;17.75;8.80;;;29.30;99.90;;;;;;5080061;28;20635;-70
2022/12/25 05:31:01;;;;;;;27.17;9.70;;;29.30;99.90;;;;;;5091035;28;20027;-70
2022/12/25 05:33:28;;;;;;;22.58;10.52;;;29.40;99.90;;;;;;5090917;28;20108;-70
2022/12/25 05:35:54;;;;;;;24.83;11.20;;;29.40;99.90;;;;;;5091539;28;20111;-67
2022/12/25 05:38:21;;;;;;;26.42;10.27;;;29.40;99.90;;;;;;5094484;28;20024;-69
2022/12/25 05:40:50;;;;;;;20.50;9.95;;;29.40;99.90;;;;;;5085591;28;20020;-66
2022/12/25 05:43:18;;;;;;;21.08;9.23;;;29.50;99.90;;;;;;5086014;28;20028;-67
2022/12/25 05:45:44;;;;;;;24.30;12.57;;;29.40;99.90;;;;;;5085783;28;20071;-67
2022/12/25 05:48:11;;;;;;;15.98;9.13;;;29.40;99.90;;;;;;5082500;28;20035;-68
2022/12/25 05:50:38;;;;;;;19.73;8.95;;;29.50;99.90;;;;;;5081574;28;20035;-68
2022/12/25 05:53:09;;;;;;;48.67;22.52;;;29.50;99.90;;;;;;5084636;28;20066;-68
2022/12/25 05:55:38;;;;;;;71.13;49.03;;;29.50;99.90;;;;;;5085315;28;20035;-68
2022/12/25 05:58:07;;;;;;;45.28;25.23;;;29.50;99.90;;;;;;5083716;28;20024;-68
2022/12/25 06:00:34;;;;;;;120.35;84.63;;;29.50;99.90;;;;;;5088021;28;20027;-68
2022/12/25 06:03:00;;;;;;;91.00;64.50;;;29.50;99.90;;;;;;5093437;28;20103;-69
2022/12/25 06:05:27;;;;;;;30.45;18.50;;;29.50;99.90;;;;;;5079576;28;20115;-66
2022/12/25 06:07:53;;;;;;;60.50;37.28;;;29.60;99.90;;;;;;5083545;28;20030;-69
2022/12/25 06:10:20;;;;;;;60.20;38.97;;;29.60;99.90;;;;;;5083713;28;20021;-67
2022/12/25 06:12:46;;;;;;;37.88;20.63;;;29.70;99.90;;;;;;5085788;28;20115;-67
2022/12/25 06:15:13;;;;;;;27.17;13.02;;;29.70;99.90;;;;;;5084493;28;20431;-67
2022/12/25 06:17:39;;;;;;;24.45;10.32;;;29.70;99.90;;;;;;5083658;28;20044;-67
2022/12/25 06:20:07;;;;;;;30.42;14.77;;;29.70;99.90;;;;;;5082855;28;20016;-67
2022/12/25 06:22:34;;;;;;;30.00;12.18;;;29.70;99.90;;;;;;5083930;28;20496;-65
2022/12/25 06:25:01;;;;;;;20.05;10.20;;;29.80;99.90;;;;;;5082709;28;20143;-67
2022/12/25 06:27:27;;;;;;;47.50;28.98;;;29.70;99.90;;;;;;5082185;28;20537;-67
2022/12/25 06:29:54;;;;;;;167.02;117.50;;;29.80;99.90;;;;;;5083356;28;20073;-66
2022/12/25 06:32:21;;;;;;;27.58;17.05;;;29.80;99.90;;;;;;5082563;28;20028;-66
2022/12/25 06:34:47;;;;;;;29.45;12.75;;;29.80;99.90;;;;;;5082046;28;20059;-66
2022/12/25 06:37:14;;;;;;;15.15;8.85;;;29.80;99.90;;;;;;5082953;28;20035;-65
2022/12/25 06:39:40;;;;;;;22.52;9.90;;;29.80;99.90;;;;;;5081765;28;20059;-67
2022/12/25 06:42:07;;;;;;;19.08;8.15;;;29.80;99.90;;;;;;5083017;28;20028;-67
2022/12/25 06:44:33;;;;;;;18.13;8.80;;;29.80;99.90;;;;;;5081763;28;20096;-70
2022/12/25 06:47:00;;;;;;;29.67;11.68;;;29.90;99.90;;;;;;5083197;28;20017;-67
2022/12/25 06:49:26;;;;;;;17.40;8.30;;;29.90;99.90;;;;;;5084090;28;20632;-67
2022/12/25 06:51:53;;;;;;;20.05;9.07;;;29.90;99.90;;;;;;5083548;28;20024;-66
2022/12/25 06:54:19;;;;;;;23.27;9.07;;;29.90;99.90;;;;;;5073437;28;20040;-67
2022/12/25 06:56:46;;;;;;;30.83;17.33;;;29.90;99.90;;;;;;5073459;28;20024;-66
2022/12/25 06:59:13;;;;;;;18.85;9.40;;;30.00;99.90;;;;;;5073578;28;20024;-67
2022/12/25 07:01:46;;;;;;;17.50;9.43;;;30.00;99.90;;;;;;5087730;28;20031;-68
2022/12/25 07:04:39;;;;;;;31.38;14.40;;;30.00;99.90;;;;;;5093490;28;20027;-66
2022/12/25 07:07:07;;;;;;;22.80;15.52;;;30.00;99.90;;;;;;5093095;28;20136;-68
2022/12/25 07:09:34;;;;;;;28.30;14.85;;;30.00;99.90;;;;;;5085176;28;20051;-70
2022/12/25 07:12:06;;;;;;;18.92;9.82;;;30.00;99.90;;;;;;5074201;28;20020;-71
2022/12/25 07:14:33;;;;;;;;;;;30.00;99.90;;;;;;5074594;28;20111;-71
2022/12/25 07:17:01;;;;;;;20.30;9.60;;;30.00;99.90;;;;;;5090506;28;19962;-71
2022/12/25 07:19:28;;;;;;;18.60;8.75;;;30.00;99.90;;;;;;5093541;28;20026;-69
2022/12/25 07:21:55;;;;;;;21.85;9.32;;;30.10;99.90;;;;;;5093426;28;20016;-69
2022/12/25 07:24:22;;;;;;;25.77;8.63;;;30.10;99.90;;;;;;5093457;28;20044;-70
2022/12/25 07:26:50;;;;;;;18.13;8.50;;;30.20;99.90;;;;;;5093177;28;20073;-69
2022/12/25 07:29:18;;;;;;;18.10;9.27;;;30.10;99.90;;;;;;5089162;28;20032;-71
2022/12/25 07:31:46;;;;;;;23.00;10.38;;;30.10;99.90;;;;;;5077211;28;20366;-70
2022/12/25 07:34:13;;;;;;;58.90;40.53;;;30.00;99.90;;;;;;5074338;28;20037;-69
2022/12/25 07:36:39;;;;;;;174.95;133.13;;;30.00;99.90;;;;;;5089869;28;20058;-69
2022/12/25 07:39:06;;;;;;;175.85;114.68;;;30.10;99.90;;;;;;5073237;28;20028;-69
2022/12/25 07:41:32;;;;;;;182.23;123.38;;;30.10;99.90;;;;;;5075332;28;20028;-69
2022/12/25 07:43:59;;;;;;;51.33;32.05;;;30.10;99.90;;;;;;5079780;28;20019;-67
2022/12/25 07:46:27;;;;;;;27.80;14.55;;;30.00;99.90;;;;;;5092188;28;20021;-70
2022/12/25 07:48:53;;;;;;;26.27;13.40;;;30.00;99.90;;;;;;5092744;28;20033;-67
2022/12/25 07:51:20;;;;;;;29.20;14.32;;;30.00;99.90;;;;;;5086329;28;20109;-71
2022/12/25 07:53:46;;;;;;;34.88;21.42;;;30.00;99.90;;;;;;5096024;28;20028;-69
2022/12/25 07:56:16;;;;;;;38.85;22.23;;;30.10;99.90;;;;;;5088083;28;20040;-69
2022/12/25 07:58:42;;;;;;;43.38;23.80;;;30.10;99.90;;;;;;5093609;28;20017;-68
2022/12/25 08:01:18;;;;;;;31.40;17.55;;;30.10;99.90;;;;;;5082710;28;20077;-68
2022/12/25 08:03:56;;;;;;;27.77;15.27;;;30.10;99.90;;;;;;5078638;28;20481;-67
2022/12/25 08:06:28;;;;;;;38.38;18.95;;;30.10;99.90;;;;;;5075227;28;20171;-68
2022/12/25 08:08:56;;;;;;;81.55;50.42;;;30.10;99.90;;;;;;5082368;28;20029;-68
2022/12/25 08:11:23;;;;;;;89.45;57.63;;;30.10;99.90;;;;;;5080047;28;20028;-69
2022/12/25 08:13:49;;;;;;;172.38;126.82;;;30.10;99.90;;;;;;5079154;28;20109;-69
2022/12/25 08:16:16;;;;;;;246.30;164.63;;;30.10;99.90;;;;;;5087107;28;20050;-69
2022/12/25 08:18:43;;;;;;;169.52;119.55;;;30.00;99.90;;;;;;5092996;28;20504;-70
2022/12/25 08:21:12;;;;;;;92.43;61.42;;;30.10;99.90;;;;;;5088341;28;20036;-71
2022/12/25 08:23:41;;;;;;;196.98;136.13;;;30.10;99.90;;;;;;5089049;28;20150;-70
2022/12/25 08:26:11;;;;;;;181.07;118.50;;;30.20;99.90;;;;;;5093678;28;20112;-70
2022/12/25 08:28:37;;;;;;;261.98;155.90;;;30.20;99.90;;;;;;5079743;28;20378;-71
2022/12/25 08:31:10;;;;;;;248.52;160.18;;;30.20;99.90;;;;;;5095069;28;20085;-71
2022/12/25 08:33:37;;;;;;;125.80;71.40;;;30.20;99.90;;;;;;5095213;28;20028;-71
2022/12/25 08:36:06;;;;;;;111.00;63.13;;;30.10;99.90;;;;;;5095564;28;20081;-71
2022/12/25 08:38:33;;;;;;;107.60;58.58;;;30.10;99.90;;;;;;5095639;28;20024;-71
2022/12/25 08:41:00;;;;;;;133.35;78.55;;;30.10;99.90;;;;;;5095196;28;20048;-71
2022/12/25 08:43:26;;;;;;;134.38;82.35;;;30.10;99.90;;;;;;5095390;28;20043;-71
2022/12/25 08:45:53;;;;;;;114.75;77.55;;;30.20;99.90;;;;;;5095093;28;20031;-71
2022/12/25 08:48:19;;;;;;;50.58;36.28;;;30.20;99.90;;;;;;5094693;28;20568;-70
2022/12/25 08:50:47;;;;;;;29.13;16.10;;;30.20;99.90;;;;;;5094897;28;20028;-70
2022/12/25 08:53:14;;;;;;;34.60;19.63;;;30.20;99.90;;;;;;5094870;28;20035;-70
2022/12/25 08:55:42;;;;;;;49.95;36.58;;;30.20;99.90;;;;;;5094814;28;20031;-69
2022/12/25 08:58:09;;;;;;;43.42;30.40;;;30.20;99.90;;;;;;5095291;28;20038;-72
2022/12/25 09:00:36;;;;;;;50.17;29.55;;;30.20;99.90;;;;;;5082184;28;20414;-69
2022/12/25 09:03:03;;;;;;;52.75;31.70;;;30.10;99.90;;;;;;5074758;28;20020;-71
2022/12/25 09:05:30;;;;;;;46.88;25.58;;;30.10;99.90;;;;;;5088664;28;20028;-70
2022/12/25 09:07:56;;;;;;;51.60;33.05;;;30.10;99.90;;;;;;5083673;28;20378;-70
2022/12/25 09:10:23;;;;;;;48.38;25.65;;;30.10;99.90;;;;;;5074683;28;20489;-68
2022/12/25 09:12:49;;;;;;;39.35;24.83;;;30.10;99.90;;;;;;5074526;28;20041;-71
2022/12/25 09:15:16;;;;;;;75.55;44.20;;;30.00;99.90;;;;;;5081727;28;20153;-75
2022/12/25 09:17:42;;;;;;;85.00;51.85;;;30.10;99.90;;;;;;5082048;28;20078;-69
2022/12/25 09:20:09;;;;;;;54.58;33.65;;;30.00;99.90;;;;;;5083075;28;20055;-70
2022/12/25 09:22:35;;;;;;;52.50;30.92;;;30.00;99.90;;;;;;5084636;28;20016;-70
2022/12/25 09:25:02;;;;;;;38.70;23.60;;;30.00;99.90;;;;;;5093744;28;20077;-71
2022/12/25 09:27:28;;;;;;;82.03;47.35;;;30.00;99.90;;;;;;5094863;28;20016;-67
2022/12/25 09:29:55;;;;;;;45.83;29.13;;;30.00;99.90;;;;;;5088525;28;20039;-64
2022/12/25 09:32:21;;;;;;;65.68;36.33;;;30.00;99.90;;;;;;5085643;28;20016;-68
2022/12/25 09:34:49;;;;;;;50.50;25.70;;;30.00;99.90;;;;;;5083168;28;20038;-69
2022/12/25 09:37:16;;;;;;;56.17;34.58;;;30.00;99.90;;;;;;5083596;28;20019;-69
2022/12/25 09:39:42;;;;;;;92.03;53.28;;;30.00;99.90;;;;;;5084931;28;20024;-68
2022/12/25 09:42:23;;;;;;;63.95;38.92;;;30.10;99.90;;;;;;5084969;28;20173;-67
2022/12/25 09:44:55;;;;;;;29.52;17.70;;;30.00;99.90;;;;;;5083068;28;20012;-69
2022/12/25 09:47:27;;;;;;;49.85;27.02;;;30.00;99.90;;;;;;5082821;28;20031;-71
2022/12/25 09:49:57;;;;;;;;;;;30.00;99.90;;;;;;5084147;28;20468;-69
2022/12/25 09:52:53;;;;;;;65.18;27.55;;;30.00;99.90;;;;;;5082504;28;20373;-67
2022/12/25 09:55:26;;;;;;;59.80;22.85;;;30.00;99.90;;;;;;5084315;28;20024;-69
2022/12/25 09:57:55;;;;;;;66.72;37.78;;;30.00;99.90;;;;;;5084351;28;20020;-69
2022/12/25 10:00:35;;;;;;;75.05;39.58;;;29.90;99.90;;;;;;5085224;28;20016;-69
2022/12/25 10:03:07;;;;;;;89.30;45.05;;;29.90;99.90;;;;;;5084780;28;20017;-69
2022/12/25 10:05:52;;;;;;;138.18;63.88;;;29.90;99.90;;;;;;5082870;28;20043;-69
2022/12/25 10:08:33;;;;;;;58.78;28.30;;;30.00;99.90;;;;;;5083453;28;20056;-68
2022/12/25 10:11:37;;;;;;;64.23;29.47;;;29.90;99.90;;;;;;5083567;28;20052;-70
2022/12/25 10:14:09;;;;;;;60.75;27.67;;;29.90;99.90;;;;;;5083136;28;20501;-69
2022/12/25 10:16:52;;;;;;;49.50;28.30;;;29.90;99.90;;;;;;5081502;28;20032;-67
2022/12/25 10:19:40;;;;;;;84.10;40.75;;;29.90;99.90;;;;;;5082068;28;20495;-70
2022/12/25 10:22:24;;;;;;;76.90;42.92;;;29.90;99.90;;;;;;5083233;28;20020;-70
2022/12/25 10:24:54;;;;;;;47.97;25.67;;;29.90;99.90;;;;;;5083026;28;20020;-67
2022/12/25 10:27:40;;;;;;;69.75;40.63;;;29.90;99.90;;;;;;5081583;28;20473;-68
2022/12/25 10:30:18;;;;;;;93.15;47.17;;;29.80;99.90;;;;;;5083593;28;20065;-71
2022/12/25 10:32:46;;;;;;;78.40;47.53;;;29.90;99.90;;;;;;5090525;28;20028;-68
2022/12/25 10:35:14;;;;;;;56.80;34.40;;;29.80;99.90;;;;;;5087177;28;20107;-67
2022/12/25 10:37:43;;;;;;;61.92;37.88;;;29.90;99.90;;;;;;5081455;28;20017;-68
2022/12/25 10:40:29;;;;;;;70.07;41.17;;;29.90;99.90;;;;;;5083030;28;20065;-71
2022/12/25 10:43:03;;;;;;;67.55;37.60;;;29.90;99.90;;;;;;5083848;28;20024;-70
2022/12/25 10:45:29;;;;;;;95.70;59.10;;;29.80;99.90;;;;;;5083015;28;20032;-71
2022/12/25 10:48:05;;;;;;;111.63;67.50;;;29.80;99.90;;;;;;5082254;28;20023;-70
2022/12/25 10:50:32;;;;;;;89.47;56.67;;;29.80;99.90;;;;;;5082930;28;20020;-70
2022/12/25 10:53:04;;;;;;;97.15;53.05;;;29.80;99.90;;;;;;5081873;28;20032;-70
2022/12/25 10:55:32;;;;;;;126.85;75.78;;;29.80;99.90;;;;;;5082776;28;20030;-70
2022/12/25 10:58:00;;;;;;;98.32;60.58;;;29.80;99.90;;;;;;5083946;28;20032;-72
2022/12/25 11:00:31;;;;;;;94.82;56.88;;;29.80;99.90;;;;;;5082380;28;20051;-72
2022/12/25 11:02:58;;;;;;;113.57;60.40;;;29.70;99.90;;;;;;5081889;28;20048;-70
2022/12/25 11:05:29;;;;;;;96.35;58.40;;;29.70;99.90;;;;;;5083721;28;20522;-70
2022/12/25 11:07:57;;;;;;;90.20;52.35;;;29.80;99.90;;;;;;5087358;28;20536;-71
2022/12/25 11:10:33;;;;;;;60.67;36.17;;;29.80;99.90;;;;;;5087672;28;20376;-72
2022/12/25 11:13:01;;;;;;;61.15;31.33;;;29.70;99.90;;;;;;5093180;28;20040;-71
2022/12/25 11:15:50;;;;;;;54.95;26.67;;;29.70;99.90;;;;;;5084887;28;20037;-71
2022/12/25 11:18:21;;;;;;;44.75;24.58;;;29.60;99.90;;;;;;5082533;28;20031;-71
2022/12/25 11:20:53;;;;;;;42.40;18.55;;;29.60;99.90;;;;;;5082100;28;20020;-70
2022/12/25 11:23:22;;;;;;;38.13;17.88;;;29.50;99.90;;;;;;5081484;28;20471;-71
2022/12/25 11:26:06;;;;;;;37.38;18.45;;;29.40;99.90;;;;;;5082948;28;20012;-71
2022/12/25 11:28:37;;;;;;;39.85;17.73;;;29.40;99.90;;;;;;5084203;28;20128;-70
2022/12/25 11:31:15;;;;;;;33.38;16.02;;;29.40;99.90;;;;;;5085360;28;20021;-70
2022/12/25 11:33:59;;;;;;;38.00;18.00;;;29.40;99.90;;;;;;5085100;28;20109;-71
2022/12/25 11:36:46;;;;;;;34.88;17.48;;;29.40;99.90;;;;;;5085418;28;20100;-69
2022/12/25 11:39:24;;;;;;;40.28;18.17;;;29.30;99.90;;;;;;5086293;28;20009;-71
2022/12/25 11:41:57;;;;;;;44.25;19.35;;;29.30;99.90;;;;;;5086065;28;20093;-69
2022/12/25 11:44:42;;;;;;;42.70;19.30;;;29.30;99.90;;;;;;5086753;28;20081;-69
2022/12/25 11:47:23;;;;;;;42.90;19.13;;;29.30;99.90;;;;;;5087901;28;20024;-69
2022/12/25 11:50:01;;;;;;;92.03;57.20;;;29.30;99.90;;;;;;5085623;28;20025;-70
2022/12/25 11:52:34;;;;;;;112.13;67.57;;;29.30;99.90;;;;;;5084987;28;20070;-69
2022/12/25 11:55:21;;;;;;;;;;;29.30;99.90;;;;;;5083914;28;20095;-68
2022/12/25 11:58:00;;;;;;;74.43;42.35;;;29.30;99.90;;;;;;5084658;28;19975;-69
2022/12/25 12:00:29;;;;;;;131.77;93.10;;;29.20;99.90;;;;;;5084653;28;20275;-69
2022/12/25 12:02:58;;;;;;;90.45;58.92;;;29.20;99.90;;;;;;5085341;28;20020;-69
2022/12/25 12:05:53;;;;;;;123.00;79.88;;;29.20;99.90;;;;;;5086689;28;20094;-70
2022/12/25 12:08:19;;;;;;;122.85;80.00;;;29.20;99.90;;;;;;5086590;28;20070;-70
2022/12/25 12:11:18;;;;;;;53.38;27.48;;;29.20;99.90;;;;;;5084687;28;20013;-68
2022/12/25 12:14:30;;;;;;;56.05;24.67;;;29.20;99.90;;;;;;5086406;28;20028;-70
2022/12/25 12:16:56;;;;;;;52.78;23.40;;;29.10;99.90;;;;;;4968360;28;20522;-68
2022/12/25 12:19:29;;;;;;;40.55;20.67;;;29.10;99.90;;;;;;5066982;28;20036;-70
2022/12/25 12:22:01;;;;;;;36.25;16.33;;;29.00;99.90;;;;;;5087534;28;20024;-69
2022/12/25 12:24:38;;;;;;;34.38;16.65;;;29.10;99.90;;;;;;5091661;28;20046;-70
2022/12/25 12:27:16;;;;;;;41.45;18.48;;;29.10;99.90;;;;;;5086701;28;20021;-69
2022/12/25 12:29:45;;;;;;;32.55;16.27;;;29.10;99.90;;;;;;5086654;28;20032;-70
2022/12/25 12:32:25;;;;;;;34.47;16.92;;;29.10;99.90;;;;;;5088038;28;20055;-70
2022/12/25 12:34:52;;;;;;;40.17;17.08;;;29.00;99.90;;;;;;5087169;28;20448;-70
2022/12/25 12:37:24;;;;;;;42.13;16.55;;;29.10;99.90;;;;;;5086476;28;20025;-68
2022/12/25 12:39:54;;;;;;;43.70;18.00;;;29.00;99.90;;;;;;5084938;28;20021;-68
2022/12/25 12:42:28;;;;;;;37.00;17.13;;;29.00;99.90;;;;;;5078045;28;20027;-69
2022/12/25 12:44:57;;;;;;;41.53;18.17;;;29.00;99.90;;;;;;5078381;28;20056;-68
2022/12/25 12:47:45;;;;;;;34.60;17.20;;;29.00;99.90;;;;;;5078248;28;20501;-69
2022/12/25 12:50:34;;;;;;;38.95;17.45;;;29.00;99.90;;;;;;5088774;28;20492;-68
2022/12/25 12:53:16;;;;;;;36.70;17.60;;;29.00;99.90;;;;;;5085232;28;20024;-69
2022/12/25 12:55:42;;;;;;;37.35;18.50;;;29.00;99.90;;;;;;5077508;28;20031;-68
2022/12/25 12:58:23;;;;;;;46.70;17.33;;;29.00;99.90;;;;;;5077840;28;20075;-69
2022/12/25 13:00:59;;;;;;;42.50;18.75;;;29.00;99.90;;;;;;5077331;28;20104;-69
2022/12/25 13:03:43;;;;;;;41.38;19.23;;;28.90;99.90;;;;;;5077611;28;20520;-69
2022/12/25 13:06:42;;;;;;;39.05;18.98;;;28.90;99.90;;;;;;5077707;28;20035;-69
2022/12/25 13:09:32;;;;;;;35.00;17.02;;;28.90;99.90;;;;;;5078310;28;20095;-67
2022/12/25 13:12:03;;;;;;;39.65;18.20;;;28.90;99.90;;;;;;5077382;28;20043;-68
2022/12/25 13:14:30;;;;;;;35.88;16.75;;;28.90;99.90;;;;;;5076770;28;20052;-68
2022/12/25 13:16:56;;;;;;;38.90;17.08;;;28.80;99.90;;;;;;5086027;28;20051;-69
2022/12/25 13:19:26;;;;;;;34.95;16.75;;;28.80;99.90;;;;;;5081464;28;20055;-70
2022/12/25 13:22:01;;;;;;;44.30;17.15;;;28.90;99.90;;;;;;5085621;28;20016;-70
2022/12/25 13:24:30;;;;;;;35.25;16.45;;;28.90;99.90;;;;;;5087766;28;20095;-70
2022/12/25 13:26:57;;;;;;;41.13;17.63;;;28.90;99.90;;;;;;5075208;28;20024;-69
2022/12/25 13:29:35;;;;;;;40.72;17.73;;;28.90;99.90;;;;;;5073709;28;20024;-70
2022/12/25 13:32:05;;;;;;;41.72;18.38;;;28.80;99.90;;;;;;5074785;28;20021;-66
2022/12/25 13:34:40;;;;;;;41.22;19.48;;;28.80;99.90;;;;;;5072700;28;20465;-69
2022/12/25 13:37:13;;;;;;;36.72;17.30;;;28.80;99.90;;;;;;5072262;28;20052;-69
2022/12/25 13:40:02;;;;;;;59.13;27.13;;;28.80;99.90;;;;;;5072916;28;20021;-67
2022/12/25 13:42:38;;;;;;;101.38;46.05;;;28.80;99.90;;;;;;5080291;28;20013;-65
2022/12/25 13:45:24;;;;;;;77.68;37.35;;;28.80;99.90;;;;;;5078850;28;20032;-68
2022/12/25 13:47:52;;;;;;;60.38;28.60;;;28.80;99.90;;;;;;5070736;28;20020;-67
2022/12/25 13:50:27;;;;;;;61.40;28.40;;;28.80;99.90;;;;;;5071698;28;20385;-67
2022/12/25 13:52:55;;;;;;;78.05;33.25;;;28.70;99.90;;;;;;5072244;28;20021;-66
2022/12/25 13:55:28;;;;;;;74.32;30.88;;;28.70;99.90;;;;;;5072267;28;20395;-65
2022/12/25 13:58:00;;;;;;;58.35;24.67;;;28.70;99.90;;;;;;5073697;28;20024;-66
2022/12/25 14:00:46;;;;;;;44.05;19.23;;;28.70;99.90;;;;;;5073961;28;20021;-66
2022/12/25 14:03:42;;;;;;;47.90;18.98;;;28.60;99.90;;;;;;5085118;28;20036;-66
2022/12/25 14:06:19;;;;;;;41.63;15.70;;;28.60;99.90;;;;;;5074091;28;20037;-66
2022/12/25 14:08:47;;;;;;;34.33;13.40;;;28.60;99.90;;;;;;5073308;28;20033;-66
2022/12/25 14:11:16;;;;;;;36.40;14.73;;;28.60;99.90;;;;;;5073546;28;20107;-65
2022/12/25 14:13:44;;;;;;;36.90;14.27;;;28.60;99.90;;;;;;5073310;28;20061;-67
2022/12/25 14:16:14;;;;;;;37.85;14.27;;;28.70;99.90;;;;;;5073407;28;20021;-65
2022/12/25 14:18:57;;;;;;;38.25;14.50;;;28.70;99.90;;;;;;5073264;28;20028;-66
2022/12/25 14:21:32;;;;;;;30.67;13.50;;;28.60;99.90;;;;;;5073473;28;20105;-67
2022/12/25 14:23:59;;;;;;;43.97;15.52;;;28.60;99.90;;;;;;5073238;28;20020;-67
2022/12/25 14:26:29;;;;;;;31.40;14.80;;;28.60;99.90;;;;;;5073436;28;20020;-67
2022/12/25 14:29:07;;;;;;;30.67;13.18;;;28.60;99.90;;;;;;5073309;28;20055;-67
2022/12/25 14:31:34;;;;;;;34.95;13.55;;;28.60;99.90;;;;;;5073603;28;20454;-66